KFHR/FHR METAR and TAF weather

Enter ICAO airport designator
Station Type Date Time Source
KFHR METAR 2019/02/16 16:53 UTC NOAA

KFHR 161653Z AUTO 00000KT 5SM BR FEW011 SCT038 OVC048 05/04 A2982 RMK AO2 RAE1558 SLP100 P0000 T00500044


Station Type Date Time Source
KFHR Decoded METAR 2019/02/16 16:53 UTC NOAA

FRIDAY HARBOR AIRPORT, WA, United States (KFHR) 48-31N 123-02W 32M
Feb 16, 2019 - 11:53 AM EST / 2019.02.16 1653 UTC
Wind: Calm:0
Visibility: 5 mile(s):0
Sky conditions: overcast
Weather: mist
Precipitation last hour: A trace
Temperature: 41.0 F (5.0 C)
Dew Point: 39.9 F (4.4 C)
Relative Humidity: 95%
Pressure (altimeter): 29.82 in. Hg (1009 hPa)
ob: KFHR 161653Z AUTO 00000KT 5SM BR FEW011 SCT038 OVC048 05/04 A2982 RMK AO2 RAE1558 SLP100 P0000 T00500044
cycle: 17

Station Type Date Time Source
KFHR TAF UTC NOAA

Error!


Example: see airport list